sensor_id;sensor_type;location;lat;lon;timestamp;P1;durP1;ratioP1;P2;durP2;ratioP2
29776;SDS011;16677;52.224;7.484;2023-06-19T00:00:04;7.38;;;6.78;;
29776;SDS011;16677;52.224;7.484;2023-06-19T00:02:42;9.90;;;7.38;;
29776;SDS011;16677;52.224;7.484;2023-06-19T00:05:09;7.47;;;6.78;;
29776;SDS011;16677;52.224;7.484;2023-06-19T00:07:38;8.35;;;7.55;;
29776;SDS011;16677;52.224;7.484;2023-06-19T00:10:06;8.27;;;7.57;;
29776;SDS011;16677;52.224;7.484;2023-06-19T00:12:33;8.30;;;7.50;;
29776;SDS011;16677;52.224;7.484;2023-06-19T00:15:01;7.47;;;6.78;;
29776;SDS011;16677;52.224;7.484;2023-06-19T00:17:29;8.25;;;7.47;;
29776;SDS011;16677;52.224;7.484;2023-06-19T00:19:56;7.55;;;6.95;;
29776;SDS011;16677;52.224;7.484;2023-06-19T00:22:24;8.32;;;7.53;;
29776;SDS011;16677;52.224;7.484;2023-06-19T00:24:52;10.27;;;8.05;;
29776;SDS011;16677;52.224;7.484;2023-06-19T00:27:19;7.95;;;7.25;;
29776;SDS011;16677;52.224;7.484;2023-06-19T00:29:46;7.85;;;7.13;;
29776;SDS011;16677;52.224;7.484;2023-06-19T00:32:13;7.63;;;7.03;;
29776;SDS011;16677;52.224;7.484;2023-06-19T00:34:40;8.23;;;7.47;;
29776;SDS011;16677;52.224;7.484;2023-06-19T00:37:09;7.68;;;6.88;;
29776;SDS011;16677;52.224;7.484;2023-06-19T00:39:39;8.30;;;7.57;;
29776;SDS011;16677;52.224;7.484;2023-06-19T00:42:10;8.52;;;7.72;;
29776;SDS011;16677;52.224;7.484;2023-06-19T00:44:37;8.60;;;7.80;;
29776;SDS011;16677;52.224;7.484;2023-06-19T00:47:06;8.05;;;7.30;;
29776;SDS011;16677;52.224;7.484;2023-06-19T00:49:33;8.60;;;7.68;;
29776;SDS011;16677;52.224;7.484;2023-06-19T00:52:00;8.05;;;7.40;;
29776;SDS011;16677;52.224;7.484;2023-06-19T00:54:29;8.23;;;7.53;;
29776;SDS011;16677;52.224;7.484;2023-06-19T00:56:57;9.40;;;7.70;;
29776;SDS011;16677;52.224;7.484;2023-06-19T00:59:24;8.57;;;7.78;;
29776;SDS011;16677;52.224;7.484;2023-06-19T01:01:52;8.02;;;7.32;;
29776;SDS011;16677;52.224;7.484;2023-06-19T01:04:19;8.55;;;7.78;;
29776;SDS011;16677;52.224;7.484;2023-06-19T01:06:53;7.95;;;7.15;;
29776;SDS011;16677;52.224;7.484;2023-06-19T01:09:28;8.05;;;7.20;;
29776;SDS011;16677;52.224;7.484;2023-06-19T01:12:08;8.20;;;7.50;;
29776;SDS011;16677;52.224;7.484;2023-06-19T01:14:59;8.07;;;7.32;;
29776;SDS011;16677;52.224;7.484;2023-06-19T01:17:29;7.88;;;7.22;;
29776;SDS011;16677;52.224;7.484;2023-06-19T01:19:58;8.20;;;7.40;;
29776;SDS011;16677;52.224;7.484;2023-06-19T01:22:26;8.95;;;8.05;;
29776;SDS011;16677;52.224;7.484;2023-06-19T01:24:57;8.63;;;7.88;;
29776;SDS011;16677;52.224;7.484;2023-06-19T01:27:25;8.55;;;7.72;;
29776;SDS011;16677;52.224;7.484;2023-06-19T01:29:56;8.32;;;7.63;;
29776;SDS011;16677;52.224;7.484;2023-06-19T01:35:15;7.93;;;7.32;;
29776;SDS011;16677;52.224;7.484;2023-06-19T01:37:47;8.13;;;7.53;;
29776;SDS011;16677;52.224;7.484;2023-06-19T01:40:16;8.75;;;7.95;;
29776;SDS011;16677;52.224;7.484;2023-06-19T01:42:48;8.48;;;7.68;;
29776;SDS011;16677;52.224;7.484;2023-06-19T01:45:16;9.23;;;8.32;;
29776;SDS011;16677;52.224;7.484;2023-06-19T01:47:44;8.40;;;7.70;;
29776;SDS011;16677;52.224;7.484;2023-06-19T01:50:11;9.20;;;8.35;;
29776;SDS011;16677;52.224;7.484;2023-06-19T01:55:12;9.10;;;8.30;;
29776;SDS011;16677;52.224;7.484;2023-06-19T01:57:40;9.57;;;7.80;;
29776;SDS011;16677;52.224;7.484;2023-06-19T02:00:08;8.32;;;7.47;;
29776;SDS011;16677;52.224;7.484;2023-06-19T02:02:36;8.63;;;7.85;;
29776;SDS011;16677;52.224;7.484;2023-06-19T02:05:04;8.27;;;7.57;;
29776;SDS011;16677;52.224;7.484;2023-06-19T02:07:31;8.45;;;7.50;;
29776;SDS011;16677;52.224;7.484;2023-06-19T02:09:59;8.73;;;7.82;;
29776;SDS011;16677;52.224;7.484;2023-06-19T02:12:27;8.63;;;7.88;;
29776;SDS011;16677;52.224;7.484;2023-06-19T02:14:55;8.43;;;7.63;;
29776;SDS011;16677;52.224;7.484;2023-06-19T02:17:22;9.02;;;8.23;;
29776;SDS011;16677;52.224;7.484;2023-06-19T02:19:49;8.98;;;7.85;;
29776;SDS011;16677;52.224;7.484;2023-06-19T02:22:17;9.40;;;7.88;;
29776;SDS011;16677;52.224;7.484;2023-06-19T02:24:44;8.18;;;7.47;;
29776;SDS011;16677;52.224;7.484;2023-06-19T02:27:11;8.38;;;7.65;;
29776;SDS011;16677;52.224;7.484;2023-06-19T02:29:39;8.63;;;7.75;;
29776;SDS011;16677;52.224;7.484;2023-06-19T02:34:33;8.52;;;7.82;;
29776;SDS011;16677;52.224;7.484;2023-06-19T02:37:01;8.93;;;8.23;;
29776;SDS011;16677;52.224;7.484;2023-06-19T02:39:29;9.07;;;8.25;;
29776;SDS011;16677;52.224;7.484;2023-06-19T02:41:56;8.93;;;8.13;;
29776;SDS011;16677;52.224;7.484;2023-06-19T02:44:23;9.35;;;8.45;;
29776;SDS011;16677;52.224;7.484;2023-06-19T02:46:50;9.10;;;8.40;;
29776;SDS011;16677;52.224;7.484;2023-06-19T02:49:18;9.13;;;8.40;;
29776;SDS011;16677;52.224;7.484;2023-06-19T02:51:45;8.35;;;7.55;;
29776;SDS011;16677;52.224;7.484;2023-06-19T02:54:12;8.85;;;7.95;;
29776;SDS011;16677;52.224;7.484;2023-06-19T02:56:40;10.60;;;8.70;;
29776;SDS011;16677;52.224;7.484;2023-06-19T02:59:07;9.27;;;8.50;;
29776;SDS011;16677;52.224;7.484;2023-06-19T03:01:34;8.77;;;7.97;;
29776;SDS011;16677;52.224;7.484;2023-06-19T03:04:01;8.73;;;7.82;;
29776;SDS011;16677;52.224;7.484;2023-06-19T03:06:28;9.98;;;8.73;;
29776;SDS011;16677;52.224;7.484;2023-06-19T03:08:57;10.07;;;8.88;;
29776;SDS011;16677;52.224;7.484;2023-06-19T03:11:24;8.93;;;8.23;;
29776;SDS011;16677;52.224;7.484;2023-06-19T03:13:51;9.65;;;8.85;;
29776;SDS011;16677;52.224;7.484;2023-06-19T03:16:20;9.27;;;7.82;;
29776;SDS011;16677;52.224;7.484;2023-06-19T03:18:51;9.68;;;8.70;;
29776;SDS011;16677;52.224;7.484;2023-06-19T03:21:18;9.45;;;8.57;;
29776;SDS011;16677;52.224;7.484;2023-06-19T03:23:46;11.05;;;8.35;;
29776;SDS011;16677;52.224;7.484;2023-06-19T03:26:13;9.55;;;8.57;;
29776;SDS011;16677;52.224;7.484;2023-06-19T03:28:40;9.88;;;8.95;;
29776;SDS011;16677;52.224;7.484;2023-06-19T03:31:07;12.63;;;9.05;;
29776;SDS011;16677;52.224;7.484;2023-06-19T03:33:35;10.55;;;8.85;;
29776;SDS011;16677;52.224;7.484;2023-06-19T03:36:02;10.10;;;8.85;;
29776;SDS011;16677;52.224;7.484;2023-06-19T03:38:29;9.32;;;8.48;;
29776;SDS011;16677;52.224;7.484;2023-06-19T03:40:57;9.80;;;8.80;;
29776;SDS011;16677;52.224;7.484;2023-06-19T03:43:24;9.35;;;8.45;;
29776;SDS011;16677;52.224;7.484;2023-06-19T03:45:51;12.10;;;8.65;;
29776;SDS011;16677;52.224;7.484;2023-06-19T03:48:19;9.57;;;8.57;;
29776;SDS011;16677;52.224;7.484;2023-06-19T03:50:46;9.80;;;8.85;;
29776;SDS011;16677;52.224;7.484;2023-06-19T04:20:12;7.45;;;6.65;;
29776;SDS011;16677;52.224;7.484;2023-06-19T04:22:40;7.55;;;6.85;;
29776;SDS011;16677;52.224;7.484;2023-06-19T04:25:08;7.55;;;6.85;;
29776;SDS011;16677;52.224;7.484;2023-06-19T04:27:37;8.05;;;6.35;;
29776;SDS011;16677;52.224;7.484;2023-06-19T04:30:04;7.10;;;6.50;;
29776;SDS011;16677;52.224;7.484;2023-06-19T04:32:33;6.63;;;6.10;;
29776;SDS011;16677;52.224;7.484;2023-06-19T04:35:01;7.22;;;6.35;;
29776;SDS011;16677;52.224;7.484;2023-06-19T04:37:29;6.72;;;6.07;;
29776;SDS011;16677;52.224;7.484;2023-06-19T04:39:56;6.43;;;5.90;;
29776;SDS011;16677;52.224;7.484;2023-06-19T04:42:24;6.18;;;5.57;;
29776;SDS011;16677;52.224;7.484;2023-06-19T04:44:53;7.72;;;6.03;;
29776;SDS011;16677;52.224;7.484;2023-06-19T04:47:22;6.70;;;6.00;;
29776;SDS011;16677;52.224;7.484;2023-06-19T04:50:01;8.05;;;5.57;;
29776;SDS011;16677;52.224;7.484;2023-06-19T04:52:29;6.35;;;5.75;;
29776;SDS011;16677;52.224;7.484;2023-06-19T04:55:00;5.85;;;5.35;;
29776;SDS011;16677;52.224;7.484;2023-06-19T04:57:27;6.20;;;5.60;;
29776;SDS011;16677;52.224;7.484;2023-06-19T04:59:54;5.90;;;5.30;;
29776;SDS011;16677;52.224;7.484;2023-06-19T05:02:21;6.20;;;5.70;;
29776;SDS011;16677;52.224;7.484;2023-06-19T05:04:50;5.57;;;5.18;;
29776;SDS011;16677;52.224;7.484;2023-06-19T05:07:17;5.07;;;4.68;;
29776;SDS011;16677;52.224;7.484;2023-06-19T05:09:44;5.82;;;5.32;;
29776;SDS011;16677;52.224;7.484;2023-06-19T05:12:11;6.05;;;4.80;;
29776;SDS011;16677;52.224;7.484;2023-06-19T05:14:39;6.32;;;5.00;;
29776;SDS011;16677;52.224;7.484;2023-06-19T05:17:06;5.38;;;4.97;;
29776;SDS011;16677;52.224;7.484;2023-06-19T05:19:35;7.18;;;5.10;;
29776;SDS011;16677;52.224;7.484;2023-06-19T05:22:03;5.50;;;4.65;;
29776;SDS011;16677;52.224;7.484;2023-06-19T05:24:30;5.00;;;4.60;;
29776;SDS011;16677;52.224;7.484;2023-06-19T05:26:57;5.40;;;4.53;;
29776;SDS011;16677;52.224;7.484;2023-06-19T05:29:25;5.38;;;4.97;;
29776;SDS011;16677;52.224;7.484;2023-06-19T05:31:52;5.88;;;4.90;;
29776;SDS011;16677;52.224;7.484;2023-06-19T05:34:20;4.63;;;4.30;;
29776;SDS011;16677;52.224;7.484;2023-06-19T05:36:48;4.97;;;4.57;;
29776;SDS011;16677;52.224;7.484;2023-06-19T05:39:16;5.30;;;4.80;;
29776;SDS011;16677;52.224;7.484;2023-06-19T05:41:45;4.70;;;4.20;;
29776;SDS011;16677;52.224;7.484;2023-06-19T05:44:12;4.90;;;4.28;;
29776;SDS011;16677;52.224;7.484;2023-06-19T05:46:43;7.07;;;4.53;;
29776;SDS011;16677;52.224;7.484;2023-06-19T05:49:10;4.45;;;4.05;;
29776;SDS011;16677;52.224;7.484;2023-06-19T05:51:37;4.85;;;4.35;;
29776;SDS011;16677;52.224;7.484;2023-06-19T05:54:05;5.43;;;3.95;;
29776;SDS011;16677;52.224;7.484;2023-06-19T05:56:32;4.45;;;4.05;;
29776;SDS011;16677;52.224;7.484;2023-06-19T05:59:02;5.15;;;4.65;;
29776;SDS011;16677;52.224;7.484;2023-06-19T06:01:30;6.28;;;3.50;;
29776;SDS011;16677;52.224;7.484;2023-06-19T06:03:58;8.70;;;4.45;;
29776;SDS011;16677;52.224;7.484;2023-06-19T06:06:28;3.70;;;3.40;;
29776;SDS011;16677;52.224;7.484;2023-06-19T06:08:55;4.00;;;3.63;;
29776;SDS011;16677;52.224;7.484;2023-06-19T06:11:22;4.55;;;3.63;;
29776;SDS011;16677;52.224;7.484;2023-06-19T06:13:49;3.80;;;3.50;;
29776;SDS011;16677;52.224;7.484;2023-06-19T06:16:17;5.07;;;3.83;;
29776;SDS011;16677;52.224;7.484;2023-06-19T06:18:44;3.80;;;3.50;;
29776;SDS011;16677;52.224;7.484;2023-06-19T06:21:12;4.35;;;3.95;;
29776;SDS011;16677;52.224;7.484;2023-06-19T06:23:42;4.22;;;3.50;;
29776;SDS011;16677;52.224;7.484;2023-06-19T06:26:11;3.88;;;3.58;;
29776;SDS011;16677;52.224;7.484;2023-06-19T06:28:38;4.55;;;3.90;;
29776;SDS011;16677;52.224;7.484;2023-06-19T06:31:06;6.20;;;4.10;;
29776;SDS011;16677;52.224;7.484;2023-06-19T06:33:33;3.80;;;3.50;;
29776;SDS011;16677;52.224;7.484;2023-06-19T06:40:56;4.80;;;4.22;;
29776;SDS011;16677;52.224;7.484;2023-06-19T06:43:24;4.25;;;3.95;;
29776;SDS011;16677;52.224;7.484;2023-06-19T06:45:51;4.47;;;4.07;;
29776;SDS011;16677;52.224;7.484;2023-06-19T06:48:20;4.63;;;4.22;;
29776;SDS011;16677;52.224;7.484;2023-06-19T06:50:47;5.38;;;4.32;;
29776;SDS011;16677;52.224;7.484;2023-06-19T06:53:15;6.43;;;4.20;;
29776;SDS011;16677;52.224;7.484;2023-06-19T06:55:42;4.68;;;4.28;;
29776;SDS011;16677;52.224;7.484;2023-06-19T06:58:09;4.82;;;4.00;;
29776;SDS011;16677;52.224;7.484;2023-06-19T07:00:38;4.43;;;4.03;;
29776;SDS011;16677;52.224;7.484;2023-06-19T07:03:06;4.97;;;4.07;;
29776;SDS011;16677;52.224;7.484;2023-06-19T07:13:05;5.20;;;4.20;;
29776;SDS011;16677;52.224;7.484;2023-06-19T07:15:32;4.22;;;3.83;;
29776;SDS011;16677;52.224;7.484;2023-06-19T07:17:59;4.90;;;4.38;;
29776;SDS011;16677;52.224;7.484;2023-06-19T07:20:27;4.32;;;3.95;;
29776;SDS011;16677;52.224;7.484;2023-06-19T07:22:54;4.47;;;4.15;;
29776;SDS011;16677;52.224;7.484;2023-06-19T07:25:22;4.38;;;3.55;;
29776;SDS011;16677;52.224;7.484;2023-06-19T07:27:51;5.38;;;4.10;;
29776;SDS011;16677;52.224;7.484;2023-06-19T07:30:18;4.35;;;3.90;;
29776;SDS011;16677;52.224;7.484;2023-06-19T07:32:47;5.85;;;3.80;;
29776;SDS011;16677;52.224;7.484;2023-06-19T07:35:14;4.50;;;4.10;;
29776;SDS011;16677;52.224;7.484;2023-06-19T07:37:42;4.80;;;4.25;;
29776;SDS011;16677;52.224;7.484;2023-06-19T07:40:09;6.03;;;3.85;;
29776;SDS011;16677;52.224;7.484;2023-06-19T07:42:37;5.80;;;3.70;;
29776;SDS011;16677;52.224;7.484;2023-06-19T07:45:07;4.47;;;4.07;;
29776;SDS011;16677;52.224;7.484;2023-06-19T07:47:35;4.32;;;3.92;;
29776;SDS011;16677;52.224;7.484;2023-06-19T07:50:03;4.50;;;4.10;;
29776;SDS011;16677;52.224;7.484;2023-06-19T07:55:05;6.47;;;4.38;;
29776;SDS011;16677;52.224;7.484;2023-06-19T07:57:33;4.47;;;4.05;;
29776;SDS011;16677;52.224;7.484;2023-06-19T08:00:02;5.22;;;3.85;;
29776;SDS011;16677;52.224;7.484;2023-06-19T08:02:37;4.68;;;4.05;;
29776;SDS011;16677;52.224;7.484;2023-06-19T08:05:09;3.92;;;3.63;;
29776;SDS011;16677;52.224;7.484;2023-06-19T08:07:38;4.05;;;3.65;;
29776;SDS011;16677;52.224;7.484;2023-06-19T08:10:06;4.90;;;4.18;;
29776;SDS011;16677;52.224;7.484;2023-06-19T08:12:43;4.65;;;4.22;;
29776;SDS011;16677;52.224;7.484;2023-06-19T08:15:11;4.82;;;3.65;;
29776;SDS011;16677;52.224;7.484;2023-06-19T08:17:42;4.93;;;3.67;;
29776;SDS011;16677;52.224;7.484;2023-06-19T08:20:12;4.68;;;4.28;;
29776;SDS011;16677;52.224;7.484;2023-06-19T08:22:41;4.70;;;4.20;;
29776;SDS011;16677;52.224;7.484;2023-06-19T08:25:08;4.30;;;4.00;;
29776;SDS011;16677;52.224;7.484;2023-06-19T08:27:36;5.25;;;4.20;;
29776;SDS011;16677;52.224;7.484;2023-06-19T08:30:03;4.97;;;4.10;;
29776;SDS011;16677;52.224;7.484;2023-06-19T08:32:31;7.13;;;4.55;;
29776;SDS011;16677;52.224;7.484;2023-06-19T08:34:58;5.45;;;4.95;;
29776;SDS011;16677;52.224;7.484;2023-06-19T08:37:26;7.38;;;4.97;;
29776;SDS011;16677;52.224;7.484;2023-06-19T08:39:55;6.43;;;5.47;;
29776;SDS011;16677;52.224;7.484;2023-06-19T08:42:22;5.03;;;4.55;;
29776;SDS011;16677;52.224;7.484;2023-06-19T08:44:49;5.57;;;4.63;;
29776;SDS011;16677;52.224;7.484;2023-06-19T08:47:16;5.13;;;4.63;;
29776;SDS011;16677;52.224;7.484;2023-06-19T08:49:43;5.65;;;4.60;;
29776;SDS011;16677;52.224;7.484;2023-06-19T08:52:11;5.28;;;4.50;;
29776;SDS011;16677;52.224;7.484;2023-06-19T08:54:38;4.97;;;4.10;;
29776;SDS011;16677;52.224;7.484;2023-06-19T08:57:10;5.63;;;4.25;;
29776;SDS011;16677;52.224;7.484;2023-06-19T08:59:39;4.40;;;4.10;;
29776;SDS011;16677;52.224;7.484;2023-06-19T09:02:06;4.25;;;3.85;;
29776;SDS011;16677;52.224;7.484;2023-06-19T09:04:33;4.38;;;3.97;;
29776;SDS011;16677;52.224;7.484;2023-06-19T09:07:02;4.35;;;3.95;;
29776;SDS011;16677;52.224;7.484;2023-06-19T09:09:30;4.50;;;4.10;;
29776;SDS011;16677;52.224;7.484;2023-06-19T09:14:37;4.00;;;3.30;;
29776;SDS011;16677;52.224;7.484;2023-06-19T09:17:12;4.13;;;3.63;;
29776;SDS011;16677;52.224;7.484;2023-06-19T09:19:49;9.63;;;4.63;;
29776;SDS011;16677;52.224;7.484;2023-06-19T09:22:18;6.38;;;3.72;;
29776;SDS011;16677;52.224;7.484;2023-06-19T09:24:47;4.00;;;3.38;;
29776;SDS011;16677;52.224;7.484;2023-06-19T09:27:16;7.45;;;3.40;;
29776;SDS011;16677;52.224;7.484;2023-06-19T09:29:46;4.35;;;3.33;;
29776;SDS011;16677;52.224;7.484;2023-06-19T09:34:49;5.65;;;3.30;;
29776;SDS011;16677;52.224;7.484;2023-06-19T09:37:22;6.97;;;3.95;;
29776;SDS011;16677;52.224;7.484;2023-06-19T09:39:53;3.80;;;3.50;;
29776;SDS011;16677;52.224;7.484;2023-06-19T09:42:31;5.65;;;3.83;;
29776;SDS011;16677;52.224;7.484;2023-06-19T09:50:20;4.55;;;3.13;;
29776;SDS011;16677;52.224;7.484;2023-06-19T09:52:54;5.40;;;3.53;;
29776;SDS011;16677;52.224;7.484;2023-06-19T09:55:22;3.60;;;3.30;;
29776;SDS011;16677;52.224;7.484;2023-06-19T09:57:55;4.05;;;2.97;;
29776;SDS011;16677;52.224;7.484;2023-06-19T10:00:22;4.82;;;2.92;;
29776;SDS011;16677;52.224;7.484;2023-06-19T10:02:57;5.47;;;3.08;;
29776;SDS011;16677;52.224;7.484;2023-06-19T10:05:30;3.10;;;2.80;;
29776;SDS011;16677;52.224;7.484;2023-06-19T10:07:58;4.00;;;2.88;;
29776;SDS011;16677;52.224;7.484;2023-06-19T10:10:27;4.15;;;2.72;;
29776;SDS011;16677;52.224;7.484;2023-06-19T10:12:59;3.75;;;3.10;;
29776;SDS011;16677;52.224;7.484;2023-06-19T10:15:42;3.20;;;2.88;;
29776;SDS011;16677;52.224;7.484;2023-06-19T10:20:43;3.17;;;2.88;;
29776;SDS011;16677;52.224;7.484;2023-06-19T10:25:59;4.68;;;2.83;;
29776;SDS011;16677;52.224;7.484;2023-06-19T10:28:30;3.03;;;2.60;;
29776;SDS011;16677;52.224;7.484;2023-06-19T10:31:01;4.70;;;2.80;;
29776;SDS011;16677;52.224;7.484;2023-06-19T10:33:35;4.90;;;3.33;;
29776;SDS011;16677;52.224;7.484;2023-06-19T10:36:17;3.55;;;2.65;;
29776;SDS011;16677;52.224;7.484;2023-06-19T10:38:52;3.63;;;2.92;;
29776;SDS011;16677;52.224;7.484;2023-06-19T10:41:24;4.38;;;3.00;;
29776;SDS011;16677;52.224;7.484;2023-06-19T10:43:56;4.20;;;2.83;;
29776;SDS011;16677;52.224;7.484;2023-06-19T10:46:34;3.20;;;2.47;;
29776;SDS011;16677;52.224;7.484;2023-06-19T10:49:03;3.97;;;2.83;;
29776;SDS011;16677;52.224;7.484;2023-06-19T10:51:35;4.28;;;2.97;;
29776;SDS011;16677;52.224;7.484;2023-06-19T10:54:04;3.88;;;2.58;;
29776;SDS011;16677;52.224;7.484;2023-06-19T10:56:32;3.80;;;3.35;;
29776;SDS011;16677;52.224;7.484;2023-06-19T10:59:04;3.72;;;3.35;;
29776;SDS011;16677;52.224;7.484;2023-06-19T11:01:36;4.60;;;3.00;;
29776;SDS011;16677;52.224;7.484;2023-06-19T11:04:08;4.10;;;3.33;;
29776;SDS011;16677;52.224;7.484;2023-06-19T11:06:38;3.92;;;3.17;;
29776;SDS011;16677;52.224;7.484;2023-06-19T11:09:07;4.00;;;3.50;;
29776;SDS011;16677;52.224;7.484;2023-06-19T11:11:38;3.53;;;3.22;;
29776;SDS011;16677;52.224;7.484;2023-06-19T11:14:15;3.95;;;3.25;;
29776;SDS011;16677;52.224;7.484;2023-06-19T11:16:45;4.63;;;3.25;;
29776;SDS011;16677;52.224;7.484;2023-06-19T11:19:20;4.57;;;3.55;;
29776;SDS011;16677;52.224;7.484;2023-06-19T11:21:50;12.05;;;3.90;;
29776;SDS011;16677;52.224;7.484;2023-06-19T11:24:18;5.38;;;4.20;;
29776;SDS011;16677;52.224;7.484;2023-06-19T11:26:47;4.78;;;4.03;;
29776;SDS011;16677;52.224;7.484;2023-06-19T11:29:21;6.38;;;4.10;;
29776;SDS011;16677;52.224;7.484;2023-06-19T11:31:50;7.40;;;3.67;;
29776;SDS011;16677;52.224;7.484;2023-06-19T11:34:30;5.45;;;4.07;;
29776;SDS011;16677;52.224;7.484;2023-06-19T11:37:13;4.65;;;3.90;;
29776;SDS011;16677;52.224;7.484;2023-06-19T11:39:45;5.43;;;3.95;;
29776;SDS011;16677;52.224;7.484;2023-06-19T11:42:14;4.57;;;3.55;;
29776;SDS011;16677;52.224;7.484;2023-06-19T11:44:53;4.78;;;4.00;;
29776;SDS011;16677;52.224;7.484;2023-06-19T11:47:31;4.55;;;3.78;;
29776;SDS011;16677;52.224;7.484;2023-06-19T11:49:59;4.90;;;4.50;;
29776;SDS011;16677;52.224;7.484;2023-06-19T11:52:26;5.50;;;4.70;;
29776;SDS011;16677;52.224;7.484;2023-06-19T11:54:56;4.93;;;4.05;;
29776;SDS011;16677;52.224;7.484;2023-06-19T11:57:23;5.18;;;4.78;;
29776;SDS011;16677;52.224;7.484;2023-06-19T11:59:51;5.00;;;4.57;;
29776;SDS011;16677;52.224;7.484;2023-06-19T12:02:18;5.50;;;4.82;;
29776;SDS011;16677;52.224;7.484;2023-06-19T12:04:45;5.60;;;5.10;;
29776;SDS011;16677;52.224;7.484;2023-06-19T12:07:12;5.70;;;5.07;;
29776;SDS011;16677;52.224;7.484;2023-06-19T12:09:42;6.32;;;5.20;;
29776;SDS011;16677;52.224;7.484;2023-06-19T12:12:09;5.70;;;4.93;;
29776;SDS011;16677;52.224;7.484;2023-06-19T12:14:37;5.47;;;4.97;;
29776;SDS011;16677;52.224;7.484;2023-06-19T12:17:06;9.35;;;5.38;;
29776;SDS011;16677;52.224;7.484;2023-06-19T12:19:33;7.22;;;5.65;;
29776;SDS011;16677;52.224;7.484;2023-06-19T12:22:00;6.72;;;6.00;;
29776;SDS011;16677;52.224;7.484;2023-06-19T12:24:28;6.20;;;5.60;;
29776;SDS011;16677;52.224;7.484;2023-06-19T12:26:55;5.95;;;5.45;;
29776;SDS011;16677;52.224;7.484;2023-06-19T12:29:22;6.10;;;5.60;;
29776;SDS011;16677;52.224;7.484;2023-06-19T12:31:50;6.90;;;6.18;;
29776;SDS011;16677;52.224;7.484;2023-06-19T12:34:17;8.40;;;7.55;;
29776;SDS011;16677;52.224;7.484;2023-06-19T12:36:56;10.52;;;8.27;;
29776;SDS011;16677;52.224;7.484;2023-06-19T12:39:24;8.63;;;6.40;;
29776;SDS011;16677;52.224;7.484;2023-06-19T12:41:52;8.30;;;6.63;;
29776;SDS011;16677;52.224;7.484;2023-06-19T12:44:20;7.00;;;6.30;;
29776;SDS011;16677;52.224;7.484;2023-06-19T12:46:49;7.68;;;6.70;;
29776;SDS011;16677;52.224;7.484;2023-06-19T12:49:17;6.50;;;5.90;;
29776;SDS011;16677;52.224;7.484;2023-06-19T12:51:44;6.72;;;6.10;;
29776;SDS011;16677;52.224;7.484;2023-06-19T12:54:12;6.50;;;5.90;;
29776;SDS011;16677;52.224;7.484;2023-06-19T12:56:39;7.55;;;6.85;;
29776;SDS011;16677;52.224;7.484;2023-06-19T12:59:06;7.72;;;6.70;;
29776;SDS011;16677;52.224;7.484;2023-06-19T13:01:33;8.90;;;6.53;;
29776;SDS011;16677;52.224;7.484;2023-06-19T13:04:00;7.22;;;6.50;;
29776;SDS011;16677;52.224;7.484;2023-06-19T13:06:27;7.90;;;6.55;;
29776;SDS011;16677;52.224;7.484;2023-06-19T13:08:55;17.77;;;9.55;;
29776;SDS011;16677;52.224;7.484;2023-06-19T13:11:22;7.20;;;6.25;;
29776;SDS011;16677;52.224;7.484;2023-06-19T13:13:49;7.15;;;6.45;;
29776;SDS011;16677;52.224;7.484;2023-06-19T13:16:16;8.80;;;6.72;;
29776;SDS011;16677;52.224;7.484;2023-06-19T13:18:55;7.30;;;6.63;;
29776;SDS011;16677;52.224;7.484;2023-06-19T13:21:23;7.93;;;6.63;;
29776;SDS011;16677;52.224;7.484;2023-06-19T13:23:51;9.20;;;6.25;;
29776;SDS011;16677;52.224;7.484;2023-06-19T13:26:18;7.57;;;6.60;;
29776;SDS011;16677;52.224;7.484;2023-06-19T13:28:45;7.32;;;6.72;;
29776;SDS011;16677;52.224;7.484;2023-06-19T13:31:12;22.10;;;11.85;;
29776;SDS011;16677;52.224;7.484;2023-06-19T13:33:39;6.85;;;6.35;;
29776;SDS011;16677;52.224;7.484;2023-06-19T13:36:07;7.10;;;6.40;;
29776;SDS011;16677;52.224;7.484;2023-06-19T13:38:34;7.43;;;6.72;;
29776;SDS011;16677;52.224;7.484;2023-06-19T13:41:01;6.68;;;6.18;;
29776;SDS011;16677;52.224;7.484;2023-06-19T13:43:28;6.88;;;6.18;;
29776;SDS011;16677;52.224;7.484;2023-06-19T13:45:55;6.65;;;6.07;;
29776;SDS011;16677;52.224;7.484;2023-06-19T13:48:23;7.22;;;6.40;;
29776;SDS011;16677;52.224;7.484;2023-06-19T13:50:50;7.10;;;6.43;;
29776;SDS011;16677;52.224;7.484;2023-06-19T13:55:45;6.97;;;6.38;;
29776;SDS011;16677;52.224;7.484;2023-06-19T13:58:13;7.22;;;6.40;;
29776;SDS011;16677;52.224;7.484;2023-06-19T14:00:41;8.82;;;6.82;;
29776;SDS011;16677;52.224;7.484;2023-06-19T14:03:09;7.63;;;6.93;;
29776;SDS011;16677;52.224;7.484;2023-06-19T14:05:36;10.00;;;8.00;;
29776;SDS011;16677;52.224;7.484;2023-06-19T14:08:05;6.88;;;6.28;;
29776;SDS011;16677;52.224;7.484;2023-06-19T14:10:32;6.28;;;5.72;;
29776;SDS011;16677;52.224;7.484;2023-06-19T14:12:59;7.70;;;6.78;;
29776;SDS011;16677;52.224;7.484;2023-06-19T14:15:26;6.90;;;6.30;;
29776;SDS011;16677;52.224;7.484;2023-06-19T14:17:54;7.55;;;6.78;;
29776;SDS011;16677;52.224;7.484;2023-06-19T14:20:21;8.50;;;7.13;;
29776;SDS011;16677;52.224;7.484;2023-06-19T14:22:49;6.95;;;6.32;;
29776;SDS011;16677;52.224;7.484;2023-06-19T14:25:16;7.20;;;6.60;;
29776;SDS011;16677;52.224;7.484;2023-06-19T14:27:43;7.82;;;6.35;;
29776;SDS011;16677;52.224;7.484;2023-06-19T14:30:11;7.80;;;6.55;;
29776;SDS011;16677;52.224;7.484;2023-06-19T14:32:38;6.93;;;6.28;;
29776;SDS011;16677;52.224;7.484;2023-06-19T14:35:06;6.53;;;5.90;;
29776;SDS011;16677;52.224;7.484;2023-06-19T14:37:33;7.00;;;6.40;;
29776;SDS011;16677;52.224;7.484;2023-06-19T14:40:02;7.43;;;6.10;;
29776;SDS011;16677;52.224;7.484;2023-06-19T14:42:30;6.97;;;6.30;;
29776;SDS011;16677;52.224;7.484;2023-06-19T14:44:57;8.68;;;6.20;;
29776;SDS011;16677;52.224;7.484;2023-06-19T14:47:25;6.30;;;5.80;;
29776;SDS011;16677;52.224;7.484;2023-06-19T14:49:52;7.75;;;6.57;;
29776;SDS011;16677;52.224;7.484;2023-06-19T14:52:20;7.53;;;6.80;;
29776;SDS011;16677;52.224;7.484;2023-06-19T14:54:47;7.20;;;6.47;;
29776;SDS011;16677;52.224;7.484;2023-06-19T14:57:14;8.15;;;6.72;;
29776;SDS011;16677;52.224;7.484;2023-06-19T14:59:41;6.72;;;6.20;;
29776;SDS011;16677;52.224;7.484;2023-06-19T15:02:09;7.18;;;6.57;;
29776;SDS011;16677;52.224;7.484;2023-06-19T15:04:37;7.72;;;7.03;;
29776;SDS011;16677;52.224;7.484;2023-06-19T15:07:06;7.22;;;6.53;;
29776;SDS011;16677;52.224;7.484;2023-06-19T15:09:35;8.25;;;7.22;;
29776;SDS011;16677;52.224;7.484;2023-06-19T15:12:02;7.97;;;7.13;;
29776;SDS011;16677;52.224;7.484;2023-06-19T15:14:30;7.00;;;6.40;;
29776;SDS011;16677;52.224;7.484;2023-06-19T15:16:57;7.03;;;6.43;;
29776;SDS011;16677;52.224;7.484;2023-06-19T15:19:24;9.40;;;7.05;;
29776;SDS011;16677;52.224;7.484;2023-06-19T15:21:52;7.32;;;6.72;;
29776;SDS011;16677;52.224;7.484;2023-06-19T15:24:19;7.35;;;6.75;;
29776;SDS011;16677;52.224;7.484;2023-06-19T15:26:46;11.00;;;7.15;;
29776;SDS011;16677;52.224;7.484;2023-06-19T15:29:13;8.95;;;8.15;;
29776;SDS011;16677;52.224;7.484;2023-06-19T15:31:42;7.90;;;6.75;;
29776;SDS011;16677;52.224;7.484;2023-06-19T15:34:09;8.18;;;7.43;;
29776;SDS011;16677;52.224;7.484;2023-06-19T15:36:39;11.07;;;7.32;;
29776;SDS011;16677;52.224;7.484;2023-06-19T15:39:06;15.43;;;11.07;;
29776;SDS011;16677;52.224;7.484;2023-06-19T15:41:33;7.60;;;6.93;;
29776;SDS011;16677;52.224;7.484;2023-06-19T15:44:00;8.13;;;7.43;;
29776;SDS011;16677;52.224;7.484;2023-06-19T15:46:27;14.75;;;8.40;;
29776;SDS011;16677;52.224;7.484;2023-06-19T15:48:54;7.95;;;6.95;;
29776;SDS011;16677;52.224;7.484;2023-06-19T15:51:21;8.00;;;7.20;;
29776;SDS011;16677;52.224;7.484;2023-06-19T15:53:49;7.63;;;6.93;;
29776;SDS011;16677;52.224;7.484;2023-06-19T15:56:16;7.50;;;6.80;;
29776;SDS011;16677;52.224;7.484;2023-06-19T15:58:43;7.82;;;7.10;;
29776;SDS011;16677;52.224;7.484;2023-06-19T16:01:10;7.40;;;6.40;;
29776;SDS011;16677;52.224;7.484;2023-06-19T16:03:37;7.85;;;7.03;;